Time;durP1;ratioP1;P1;durP2;ratioP2;P2;SDS_P1;SDS_P2;PMS_P1;PMS_P2;Temp;Humidity;BMP_temperature;BMP_pressure;BME280_temperature;BME280_humidity;BME280_pressure;Samples;Min_cycle;Max_cycle;Signal;HPM_P1;HPM_P2
2022/07/04 00:01:52;;;;;;;0.20;0.20;;;;;;;16.84;66.68;101162.81;5010827;28;20069;-87
2022/07/04 00:04:19;;;;;;;0.20;0.20;;;;;;;16.74;67.06;101168.34;5018056;28;20049;-86
2022/07/04 00:06:47;;;;;;;0.20;0.20;;;;;;;16.63;67.64;101166.00;5007335;28;20049;-87
2022/07/04 00:09:18;;;;;;;0.30;0.30;;;;;;;16.54;68.58;101162.69;5018489;28;20055;-88
2022/07/04 00:11:45;;;;;;;0.28;0.28;;;;;;;16.47;69.17;101160.25;5010748;28;20060;-88
2022/07/04 00:14:12;;;;;;;0.75;0.30;;;;;;;16.40;69.22;101164.84;5022643;28;20068;-85
2022/07/04 00:16:39;;;;;;;2.80;0.30;;;;;;;16.33;69.93;101155.31;5015454;28;20041;-87
2022/07/04 00:19:14;;;;;;;2.40;0.60;;;;;;;16.24;70.30;101155.53;5042238;28;20045;-86
2022/07/04 00:21:40;;;;;;;0.68;0.40;;;;;;;16.17;71.60;101160.09;5010802;28;20124;-86
2022/07/04 00:24:10;;;;;;;0.98;0.40;;;;;;;16.14;71.32;101165.44;5005006;28;20044;-86
2022/07/04 00:26:41;;;;;;;1.45;0.50;;;;;;;16.07;72.28;101164.72;4994594;28;20041;-86
2022/07/04 00:29:11;;;;;;;0.77;0.30;;;;;;;15.99;72.47;101159.63;5033893;28;20688;-87
2022/07/04 00:31:39;;;;;;;0.50;0.38;;;;;;;15.93;72.69;101158.91;5018556;28;20052;-87
2022/07/04 00:34:06;;;;;;;0.38;0.32;;;;;;;15.86;73.47;101152.91;5018327;28;20029;-87
2022/07/04 00:36:36;;;;;;;1.75;0.40;;;;;;;15.80;73.54;101156.53;5022892;28;21209;-87
2022/07/04 00:39:04;;;;;;;1.25;0.38;;;;;;;15.75;74.26;101155.75;5035669;28;20053;-88
2022/07/04 00:41:38;;;;;;;0.77;0.30;;;;;;;15.68;74.56;101155.03;5030527;28;20055;-87
2022/07/04 00:44:15;;;;;;;0.80;0.47;;;;;;;15.66;75.35;101156.81;5032309;28;20041;-87
2022/07/04 00:46:48;;;;;;;0.30;0.20;;;;;;;15.60;75.77;101161.38;5008798;28;20077;-88
2022/07/04 00:49:19;;;;;;;;;;;;;;;15.53;77.33;101155.38;5020920;28;20103;-86
2022/07/04 00:51:47;;;;;;;0.30;0.30;;;;;;;15.49;76.50;101153.69;5000922;23;20393;-87
2022/07/04 00:54:32;;;;;;;1.40;0.52;;;;;;;15.44;77.70;101160.84;4981431;28;20074;-86
2022/07/04 00:57:01;;;;;;;2.35;0.57;;;;;;;15.41;78.10;101158.25;4963985;28;20098;-86
2022/07/04 00:59:36;;;;;;;0.52;0.40;;;;;;;15.36;78.86;101168.91;4963866;28;20046;-88
2022/07/04 01:02:07;;;;;;;0.40;0.40;;;;;;;15.32;78.93;101167.25;4967276;28;20071;-87
2022/07/04 01:04:36;;;;;;;4.50;1.73;;;;;;;15.28;79.69;101160.25;4983247;28;20070;-88
2022/07/04 01:07:09;;;;;;;0.45;0.45;;;;;;;15.25;80.22;101161.19;4964576;28;20616;-87
2022/07/04 01:09:40;;;;;;;0.50;0.50;;;;;;;15.24;80.80;101161.22;4964466;28;20541;-86
2022/07/04 01:12:10;;;;;;;0.85;0.60;;;;;;;15.24;81.05;101155.97;4966814;28;20038;-87
2022/07/04 01:14:41;;;;;;;1.38;0.70;;;;;;;15.20;81.20;101155.16;4951785;28;20046;-86
2022/07/04 01:17:12;;;;;;;0.95;0.95;;;;;;;15.16;80.97;101169.28;4967560;28;20051;-87
2022/07/04 01:19:41;;;;;;;0.47;0.47;;;;;;;15.11;82.04;101173.78;4967579;28;20125;-85
2022/07/04 01:22:09;;;;;;;0.50;0.50;;;;;;;15.07;82.55;101170.38;4970498;28;20165;-87
2022/07/04 01:24:41;;;;;;;2.22;1.25;;;;;;;15.03;82.98;101166.91;4964855;28;20058;-87
2022/07/04 01:27:15;;;;;;;0.90;0.88;;;;;;;14.95;83.43;101153.00;4963877;28;20126;-87
2022/07/04 01:29:44;;;;;;;2.03;1.13;;;;;;;14.91;83.59;101164.50;4968968;28;20051;-87
2022/07/04 01:32:14;;;;;;;0.80;0.80;;;;;;;14.88;84.70;101178.59;4954825;28;20055;-86
2022/07/04 01:34:43;;;;;;;2.45;1.10;;;;;;;14.84;84.99;101176.06;4968312;28;20043;-87
2022/07/04 01:37:20;;;;;;;0.85;0.85;;;;;;;14.81;84.74;101166.44;4971007;28;20055;-85
2022/07/04 01:39:50;;;;;;;0.90;0.90;;;;;;;14.80;85.52;101163.84;4970305;28;20039;-87
2022/07/04 01:42:17;;;;;;;2.60;1.27;;;;;;;14.76;85.99;101160.38;4956761;28;20137;-88
2022/07/04 01:44:49;;;;;;;1.05;1.00;;;;;;;14.71;85.88;101149.91;4971933;28;20054;-84
2022/07/04 01:47:19;;;;;;;2.25;1.13;;;;;;;14.64;86.29;101160.59;4970863;28;20131;-87
2022/07/04 01:49:46;;;;;;;4.88;1.35;;;;;;;14.60;86.74;101154.50;4986718;28;20409;-90
2022/07/04 01:52:15;;;;;;;1.85;0.95;;;;;;;14.54;87.04;101158.09;4982905;28;20126;-85
2022/07/04 01:54:42;;;;;;;1.10;1.10;;;;;;;14.51;87.44;101155.53;4964213;28;20050;-86
2022/07/04 01:57:13;;;;;;;1.50;1.40;;;;;;;14.47;88.32;101153.84;4984952;28;20293;-85
2022/07/04 02:02:28;;;;;;;4.47;2.50;;;;;;;14.38;88.85;101156.63;4967700;28;20137;-87
2022/07/04 02:04:58;;;;;;;3.95;1.70;;;;;;;14.34;88.90;101160.19;4966921;28;20039;-87
2022/07/04 02:07:26;;;;;;;1.48;1.38;;;;;;;14.33;89.83;101156.69;4935001;28;20075;-87
2022/07/04 02:09:56;;;;;;;2.20;1.02;;;;;;;14.32;90.17;101157.59;4981529;28;20074;-87
2022/07/04 02:15:12;;;;;;;2.17;1.63;;;;;;;14.26;90.35;101155.03;4977857;28;20686;-86
2022/07/04 02:17:40;;;;;;;2.38;1.60;;;;;;;14.21;91.47;101157.78;4954971;28;20063;-86
2022/07/04 02:20:09;;;;;;;4.28;1.92;;;;;;;14.18;90.93;101160.47;4954510;28;20129;-87
2022/07/04 02:22:40;;;;;;;2.00;1.75;;;;;;;14.14;91.85;101157.88;4968493;28;20047;-87
2022/07/04 02:25:08;;;;;;;4.10;1.88;;;;;;;14.10;91.94;101158.84;4981168;28;20050;-87
2022/07/04 02:27:39;;;;;;;2.38;1.35;;;;;;;14.06;92.00;101160.63;4981074;28;20051;-87
2022/07/04 02:30:08;;;;;;;1.95;1.85;;;;;;;14.03;92.72;101160.69;4951100;28;20102;-87
2022/07/04 02:32:37;;;;;;;3.50;1.48;;;;;;;14.00;92.64;101155.47;4982657;28;20047;-86
2022/07/04 02:35:08;;;;;;;4.05;2.08;;;;;;;14.00;93.31;101158.97;4947634;28;20066;-87
2022/07/04 02:37:35;;;;;;;1.98;1.88;;;;;;;13.98;93.46;101160.75;4950893;28;20047;-85
2022/07/04 02:40:06;;;;;;;1.95;1.85;;;;;;;13.95;93.88;101158.19;4983414;28;20083;-86
2022/07/04 02:42:34;;;;;;;1.80;1.70;;;;;;;13.92;94.23;101166.09;4968270;28;20043;-86
2022/07/04 02:45:09;;;;;;;1.80;1.70;;;;;;;13.88;94.27;101167.94;4986138;28;20110;-87
2022/07/04 02:47:36;;;;;;;3.47;1.67;;;;;;;13.86;94.98;101174.09;4957587;28;20047;-86
2022/07/04 02:50:05;;;;;;;2.75;2.42;;;;;;;13.85;95.38;101177.63;4941085;28;20047;-84
2022/07/04 02:52:37;;;;;;;3.75;2.05;;;;;;;13.85;96.59;101175.84;4962729;28;20128;-86
2022/07/04 02:55:05;;;;;;;3.88;2.10;;;;;;;13.84;96.04;101175.88;4980227;28;20121;-85
2022/07/04 02:57:37;;;;;;;3.10;2.55;;;;;;;13.83;96.34;101184.66;4995506;28;20050;-86
2022/07/04 03:00:05;;;;;;;2.45;2.35;;;;;;;13.81;96.75;101183.81;4971259;28;20097;-87
2022/07/04 03:02:36;;;;;;;2.17;2.08;;;;;;;13.82;97.33;101193.44;4989540;28;20046;-86
2022/07/04 03:05:23;;;;;;;3.75;1.73;;;;;;;13.80;97.66;101198.72;4989422;28;20834;-87
2022/07/04 03:07:52;;;;;;;2.38;1.55;;;;;;;13.80;97.87;101196.09;4993382;28;20491;-85
2022/07/04 03:10:20;;;;;;;4.47;2.28;;;;;;;13.80;97.58;101200.50;4997492;28;20066;-86
2022/07/04 03:12:53;;;;;;;2.42;2.22;;;;;;;13.79;97.77;101204.88;4988214;28;20050;-86
2022/07/04 03:15:20;;;;;;;3.25;2.00;;;;;;;13.80;97.66;101206.63;4970942;28;20138;-86
2022/07/04 03:17:49;;;;;;;4.03;2.03;;;;;;;13.83;97.43;101208.34;4986565;28;20042;-84
2022/07/04 03:20:23;;;;;;;2.05;1.95;;;;;;;13.85;98.06;101211.84;4976830;28;20043;-86
2022/07/04 03:22:54;;;;;;;2.67;1.95;;;;;;;13.88;97.82;101217.03;4975576;28;20046;-86
2022/07/04 03:25:22;;;;;;;2.15;1.98;;;;;;;13.92;98.13;101224.00;4971882;28;20106;-86
2022/07/04 03:27:48;;;;;;;2.88;2.50;;;;;;;13.93;97.77;101222.25;4961751;28;20061;-84
2022/07/04 03:30:15;;;;;;;2.67;2.20;;;;;;;13.94;97.10;101230.13;4980655;28;20038;-88
2022/07/04 03:32:43;;;;;;;1.95;1.83;;;;;;;13.95;97.78;101231.88;4980991;28;20050;-83
2022/07/04 03:35:10;;;;;;;3.20;2.08;;;;;;;14.00;97.65;101234.44;4973371;28;20050;-83
2022/07/04 03:37:36;;;;;;;1.73;1.63;;;;;;;14.01;97.69;101228.28;4990180;28;20065;-87
2022/07/04 03:40:08;;;;;;;2.60;1.90;;;;;;;13.98;97.23;101233.59;4980662;28;20046;-85
2022/07/04 03:42:36;;;;;;;2.80;2.00;;;;;;;13.97;97.33;101226.59;4989372;28;20069;-86
2022/07/04 03:45:07;;;;;;;4.10;2.42;;;;;;;13.97;97.60;101232.72;4992375;28;20046;-86
2022/07/04 03:47:34;;;;;;;2.63;1.75;;;;;;;13.96;97.96;101231.00;4995076;28;20052;-86
2022/07/04 03:50:12;;;;;;;2.40;2.20;;;;;;;13.98;97.65;101244.13;4993843;28;20382;-89
2022/07/04 03:52:39;;;;;;;2.15;1.90;;;;;;;13.96;97.92;101245.91;4996778;28;20153;-87
2022/07/04 03:55:07;;;;;;;6.78;2.33;;;;;;;14.00;98.08;101244.97;4975371;28;20074;-86
2022/07/04 03:57:38;;;;;;;3.30;2.40;;;;;;;14.03;98.01;101250.19;4953549;28;20054;-87
2022/07/04 04:00:09;;;;;;;3.00;2.40;;;;;;;14.09;97.76;101254.50;5002013;28;20291;-88
2022/07/04 04:02:38;;;;;;;2.65;2.47;;;;;;;14.11;97.42;101253.59;4987790;28;20064;-87
2022/07/04 04:08:02;;;;;;;2.85;2.55;;;;;;;14.20;97.59;101256.09;4994539;28;20042;-87
2022/07/04 04:10:32;;;;;;;4.68;3.20;;;;;;;14.23;97.30;101260.44;5004166;28;20050;-87
2022/07/04 04:13:04;;;;;;;3.03;2.67;;;;;;;14.26;97.01;101254.25;5004823;28;20050;-86
2022/07/04 04:15:36;;;;;;;4.10;2.38;;;;;;;14.32;97.04;101264.72;4976161;28;20042;-88
2022/07/04 04:18:14;;;;;;;3.45;3.08;;;;;;;14.45;97.06;101268.03;4964663;28;20398;-88
2022/07/04 04:20:44;;;;;;;4.80;3.00;;;;;;;14.71;96.05;101268.50;4978003;28;20159;-91
2022/07/04 04:23:11;;;;;;;3.53;3.20;;;;;;;14.88;94.27;101264.72;4975592;28;20042;-87
2022/07/04 04:25:39;;;;;;;5.07;3.33;;;;;;;15.03;93.51;101268.84;4979138;28;20039;-86
2022/07/04 04:28:07;;;;;;;7.43;3.35;;;;;;;15.21;92.58;101275.56;4979303;28;20304;-87
2022/07/04 04:30:43;;;;;;;7.43;2.85;;;;;;;15.36;91.39;101271.78;4996768;28;20042;-86
2022/07/04 04:36:18;;;;;;;4.18;3.63;;;;;;;15.64;89.70;101274.75;4977648;28;20053;-88
2022/07/04 04:38:46;;;;;;;5.45;2.50;;;;;;;15.76;89.33;101267.47;4959713;28;20052;-87
2022/07/04 04:41:14;;;;;;;4.28;3.38;;;;;;;15.84;88.74;101269.09;4993011;28;20034;-89
2022/07/04 04:43:49;;;;;;;2.95;2.75;;;;;;;15.94;88.50;101274.19;4979563;28;20038;-84
2022/07/04 04:46:17;;;;;;;5.68;3.97;;;;;;;16.13;87.71;101278.16;4974335;28;20054;-89
2022/07/04 04:48:46;;;;;;;8.27;3.38;;;;;;;16.38;86.69;101277.59;4975162;28;20490;-90
2022/07/04 04:51:16;;;;;;;5.32;2.80;;;;;;;16.61;85.10;101281.47;4976149;28;20142;-85
2022/07/04 04:53:45;;;;;;;5.97;3.08;;;;;;;16.78;83.94;101283.69;4978173;28;20098;-86
2022/07/04 04:56:34;;;;;;;3.30;3.10;;;;;;;16.83;83.30;101292.38;4976180;28;20070;-88
2022/07/04 04:59:01;;;;;;;4.85;2.85;;;;;;;16.83;83.29;101287.09;4971814;28;20095;-86
2022/07/04 05:01:30;;;;;;;8.52;4.60;;;;;;;16.93;82.77;101298.34;4975937;28;20493;-86
2022/07/04 05:03:58;;;;;;;6.30;3.80;;;;;;;16.97;83.00;101297.38;4976101;28;20050;-88
2022/07/04 05:06:26;;;;;;;7.82;3.97;;;;;;;17.04;82.55;101304.25;4986632;28;20052;-85
2022/07/04 05:08:54;;;;;;;9.10;4.25;;;;;;;17.05;82.22;101300.69;4986089;28;20046;-87
2022/07/04 05:11:45;;;;;;;6.13;4.13;;;;;;;16.98;82.48;101302.63;4989690;28;20545;-85
2022/07/04 05:14:21;;;;;;;3.47;3.17;;;;;;;16.95;82.96;101294.78;4966182;28;20064;-88
2022/07/04 05:17:00;;;;;;;8.15;3.72;;;;;;;16.96;83.14;101301.81;4984280;28;20904;-85
2022/07/04 05:19:35;;;;;;;11.63;3.00;;;;;;;16.98;83.03;101299.97;4983864;28;20038;-85
2022/07/04 05:22:10;;;;;;;3.90;3.47;;;;;;;16.99;82.95;101303.50;4980924;28;20042;-86
2022/07/04 05:24:39;;;;;;;4.90;3.88;;;;;;;16.83;83.71;101301.19;4994249;28;20058;-84
2022/07/04 05:27:15;;;;;;;4.43;3.33;;;;;;;16.66;84.98;101304.25;4969306;28;20046;-87
2022/07/04 05:32:31;;;;;;;6.05;4.30;;;;;;;16.39;86.82;101303.13;4984103;28;20054;-85
2022/07/04 05:35:03;;;;;;;8.60;4.95;;;;;;;16.32;87.42;101301.50;4970524;28;20046;-85
2022/07/04 05:37:40;;;;;;;8.68;5.15;;;;;;;16.27;88.14;101304.28;4994517;28;20428;-85
2022/07/04 05:40:26;;;;;;;6.20;4.20;;;;;;;16.23;88.52;101296.44;4984438;28;20207;-85
2022/07/04 05:42:56;;;;;;;10.07;5.68;;;;;;;16.28;88.38;101302.50;4993569;28;20070;-86
2022/07/04 05:45:48;;;;;;;;;;;;;;;;;;;;;
2022/07/04 05:48:28;;;;;;;6.10;4.20;;;;;;;16.31;88.86;101310.34;4981625;28;20034;-85
2022/07/04 05:51:02;;;;;;;5.82;4.18;;;;;;;16.24;88.95;101303.47;4992500;28;20038;-85
2022/07/04 05:53:32;;;;;;;6.28;4.20;;;;;;;16.28;88.63;101306.03;4964357;28;20050;-84
2022/07/04 05:58:40;;;;;;;7.28;3.75;;;;;;;16.30;88.46;101303.34;4972028;28;20104;-85
2022/07/04 06:01:07;;;;;;;9.07;4.80;;;;;;;16.30;88.22;101300.69;4983702;28;20054;-84
2022/07/04 06:03:37;;;;;;;4.90;4.20;;;;;;;16.27;87.80;101304.28;4981171;28;20074;-87
2022/07/04 06:06:06;;;;;;;5.07;3.85;;;;;;;16.29;87.13;101294.53;4994475;28;20497;-87
2022/07/04 06:08:34;;;;;;;6.95;4.13;;;;;;;16.34;87.42;101289.16;4978578;28;20053;-86
2022/07/04 06:11:07;;;;;;;4.15;3.75;;;;;;;16.44;86.75;101281.88;4978437;28;20116;-84
2022/07/04 06:13:39;;;;;;;5.20;3.70;;;;;;;16.51;85.62;101279.03;4992040;28;20054;-84
2022/07/04 06:16:11;;;;;;;3.90;3.60;;;;;;;16.50;85.14;101281.72;4976027;28;20058;-86
2022/07/04 06:18:51;;;;;;;5.70;3.47;;;;;;;16.46;85.20;101288.00;4992417;28;20065;-85
2022/07/04 06:21:27;;;;;;;3.45;3.15;;;;;;;16.38;85.97;101277.59;4980034;28;20065;-85
2022/07/04 06:23:54;;;;;;;5.88;3.58;;;;;;;16.41;85.86;101277.53;4996475;28;20116;-87
2022/07/04 06:26:29;;;;;;;3.97;3.10;;;;;;;16.48;85.48;101278.28;4954633;28;20221;-84
2022/07/04 06:31:38;;;;;;;4.30;2.60;;;;;;;16.62;82.06;101285.84;4970695;28;20053;-83
2022/07/04 06:36:49;;;;;;;4.88;2.67;;;;;;;16.82;80.92;101288.88;4978446;28;20061;-86
2022/07/04 06:39:15;;;;;;;4.10;3.65;;;;;;;16.90;80.32;101291.38;4962946;28;20046;-85
2022/07/04 06:41:45;;;;;;;4.75;2.85;;;;;;;16.96;79.77;101301.81;4976080;28;20105;-87
2022/07/04 06:44:13;;;;;;;2.25;2.13;;;;;;;17.11;78.68;101305.81;4978392;28;20582;-86
2022/07/04 06:46:40;;;;;;;2.78;2.40;;;;;;;17.29;76.78;101307.13;4984383;28;20057;-87
2022/07/04 06:49:10;;;;;;;3.55;2.05;;;;;;;17.39;75.67;101314.81;4965301;28;20383;-86
2022/07/04 06:51:37;;;;;;;3.47;2.45;;;;;;;17.43;74.94;101313.81;4977235;28;20054;-85
2022/07/04 06:54:04;;;;;;;2.38;2.17;;;;;;;17.43;74.84;101311.16;4977994;28;20502;-85
2022/07/04 06:56:34;;;;;;;2.60;1.90;;;;;;;17.38;74.68;101313.94;4993460;28;20050;-87
2022/07/04 06:59:03;;;;;;;3.75;1.67;;;;;;;17.43;74.57;101314.69;4992705;28;20077;-86
2022/07/04 07:01:30;;;;;;;8.02;1.80;;;;;;;17.58;72.15;101320.47;4997084;28;21315;-85
2022/07/04 07:03:57;;;;;;;2.40;1.27;;;;;;;17.65;71.83;101316.72;4994844;28;20053;-85
2022/07/04 07:06:26;;;;;;;4.65;1.90;;;;;;;17.80;71.03;101312.81;4991164;28;20046;-85
2022/07/04 07:09:00;;;;;;;1.45;1.02;;;;;;;18.05;69.01;101315.63;4979108;28;20551;-86
2022/07/04 07:11:27;;;;;;;1.95;1.35;;;;;;;18.21;68.42;101308.06;4977016;28;20046;-86
2022/07/04 07:13:54;;;;;;;3.15;1.30;;;;;;;18.23;67.76;101308.06;4991524;28;20042;-81
2022/07/04 07:19:03;;;;;;;1.20;1.05;;;;;;;17.95;67.87;101315.03;4978927;28;20066;-85
2022/07/04 07:21:30;;;;;;;1.83;1.70;;;;;;;17.94;68.10;101302.72;4988463;28;20072;-85
2022/07/04 07:23:57;;;;;;;2.88;1.50;;;;;;;18.09;67.47;101300.50;4993173;28;20050;-89
2022/07/04 07:26:24;;;;;;;2.67;1.30;;;;;;;18.34;66.42;101303.28;4976118;28;20080;-85
2022/07/04 07:28:50;;;;;;;2.20;1.33;;;;;;;18.60;65.32;101296.28;4964096;28;20129;-86
2022/07/04 07:31:22;;;;;;;3.10;1.85;;;;;;;18.76;63.61;101308.13;4979358;28;20054;-86
2022/07/04 07:33:49;;;;;;;3.92;1.10;;;;;;;19.05;61.71;101303.66;4996426;28;20076;-85
2022/07/04 07:36:15;;;;;;;1.15;0.90;;;;;;;19.50;60.62;101291.47;4980779;28;20088;-85
2022/07/04 07:38:43;;;;;;;1.98;0.90;;;;;;;20.03;59.68;101300.22;4999102;28;20054;-86
2022/07/04 07:41:11;;;;;;;3.95;1.10;;;;;;;20.75;57.13;101299.16;5001853;28;20042;-87
2022/07/04 07:43:39;;;;;;;3.55;1.00;;;;;;;21.35;54.20;101295.75;4988087;28;20039;-84
2022/07/04 07:46:08;;;;;;;5.03;0.95;;;;;;;21.68;52.53;101293.41;4987113;28;20069;-87
2022/07/04 07:48:35;;;;;;;2.40;0.55;;;;;;;22.07;51.14;101289.84;4986248;28;20093;-88
2022/07/04 07:51:02;;;;;;;1.95;0.55;;;;;;;22.43;49.08;101285.50;4990280;28;20051;-86
2022/07/04 07:53:29;;;;;;;1.85;1.13;;;;;;;22.50;49.10;101283.41;4990993;28;20034;-88
2022/07/04 07:55:56;;;;;;;1.45;0.88;;;;;;;22.40;48.19;101288.34;4976014;28;20132;-84
2022/07/04 07:58:23;;;;;;;2.45;0.80;;;;;;;22.46;47.58;101291.56;4978182;28;20038;-83
2022/07/04 08:00:50;;;;;;;4.13;0.43;;;;;;;22.49;47.84;101292.34;4996845;28;20054;-86
2022/07/04 08:06:00;;;;;;;1.92;0.50;;;;;;;23.43;44.88;101299.16;4988624;28;20041;-84
2022/07/04 08:08:28;;;;;;;0.80;0.30;;;;;;;23.51;43.05;101301.41;4976738;28;20121;-86
2022/07/04 08:10:55;;;;;;;0.55;0.20;;;;;;;23.55;44.12;101299.47;4992601;28;20046;-88
2022/07/04 08:13:22;;;;;;;2.13;0.50;;;;;;;24.02;43.23;101301.38;4973845;28;20053;-86
2022/07/04 08:15:52;;;;;;;0.60;0.38;;;;;;;24.32;43.08;101294.41;4994986;28;20050;-89
2022/07/04 08:18:19;;;;;;;1.40;0.45;;;;;;;23.92;42.44;101297.47;4975599;28;20054;-85
2022/07/04 08:20:46;;;;;;;5.10;0.68;;;;;;;24.02;41.87;101303.19;4992249;28;20057;-85
2022/07/04 08:23:13;;;;;;;3.35;0.55;;;;;;;24.61;41.12;101298.94;4974355;28;20073;-88
2022/07/04 08:25:41;;;;;;;0.32;0.32;;;;;;;25.45;40.08;101294.06;4959190;28;20050;-86
2022/07/04 08:28:08;;;;;;;4.00;0.88;;;;;;;25.98;38.49;101296.13;4986534;28;20378;-89
2022/07/04 08:30:35;;;;;;;0.65;0.60;;;;;;;25.42;39.37;101303.16;5013518;28;20065;-89
2022/07/04 08:33:07;;;;;;;0.47;0.32;;;;;;;24.89;39.26;101299.19;5011690;28;20070;-87
2022/07/04 08:35:34;;;;;;;0.88;0.70;;;;;;;24.94;38.78;101299.78;5012294;28;20109;-85
2022/07/04 08:38:01;;;;;;;2.42;0.50;;;;;;;25.17;37.97;101293.00;4980594;28;20177;-86
2022/07/04 08:40:31;;;;;;;1.52;0.20;;;;;;;25.31;37.29;101302.91;4994892;28;20026;-88
2022/07/04 08:43:00;;;;;;;0.55;0.38;;;;;;;25.09;37.41;101289.94;4992355;28;20104;-83
2022/07/04 08:45:36;;;;;;;2.33;0.47;;;;;;;25.58;36.89;101297.69;4972190;28;20049;-85
2022/07/04 08:48:09;;;;;;;1.42;0.30;;;;;;;26.31;35.39;101287.75;4994934;28;20482;-86
2022/07/04 08:50:50;;;;;;;1.52;0.28;;;;;;;27.22;33.33;101289.75;4977932;28;20651;-86
2022/07/04 08:53:21;;;;;;;0.85;0.40;;;;;;;27.92;32.50;101287.56;4976033;28;20169;-88
2022/07/04 08:58:34;;;;;;;1.02;0.45;;;;;;;28.03;32.23;101292.19;4979412;28;20145;-86
2022/07/04 09:01:07;;;;;;;1.02;0.20;;;;;;;28.32;31.60;101289.19;4997664;28;20096;-85
2022/07/04 09:03:34;;;;;;;0.38;0.38;;;;;;;29.13;31.19;101292.13;4974316;28;20054;-84
2022/07/04 09:06:02;;;;;;;0.95;0.20;;;;;;;29.64;29.72;101290.84;4989885;28;20050;-87
2022/07/04 09:08:32;;;;;;;2.25;0.40;;;;;;;28.78;30.06;101285.75;4978386;28;20038;-88
2022/07/04 09:10:59;;;;;;;0.93;0.40;;;;;;;28.73;30.51;101290.63;4996109;28;20051;-83
2022/07/04 09:13:26;;;;;;;1.40;0.43;;;;;;;29.35;29.00;101285.94;4978741;28;20100;-87
2022/07/04 09:15:53;;;;;;;0.93;0.40;;;;;;;29.14;28.64;101288.44;4966887;28;20070;-86
2022/07/04 09:18:36;;;;;;;1.10;0.35;;;;;;;29.60;28.16;101298.31;4977156;28;20042;-86
2022/07/04 09:21:09;;;;;;;0.45;0.20;;;;;;;30.03;27.36;101297.56;4976311;28;20767;-87
2022/07/04 09:23:42;;;;;;;0.52;0.20;;;;;;;29.82;27.96;101302.84;4992573;28;20439;-85
2022/07/04 09:26:19;;;;;;;0.85;0.30;;;;;;;30.27;28.01;101301.09;4991110;28;20039;-85
2022/07/04 09:28:58;;;;;;;0.32;0.32;;;;;;;29.30;28.61;101298.91;4975860;28;20050;-86
2022/07/04 09:31:33;;;;;;;3.50;0.40;;;;;;;27.82;30.30;101310.72;4998058;28;20038;-88
2022/07/04 09:34:03;;;;;;;0.63;0.20;;;;;;;27.85;30.54;101310.50;4992245;28;20048;-86
2022/07/04 09:36:45;;;;;;;1.02;0.30;;;;;;;28.74;29.65;101303.13;4973026;28;20109;-86
2022/07/04 09:39:22;;;;;;;2.05;0.38;;;;;;;29.93;28.18;101296.59;4974132;28;20049;-85
2022/07/04 09:41:58;;;;;;;1.10;0.22;;;;;;;30.80;26.91;101295.75;4973226;28;20042;-86
2022/07/04 09:44:48;;;;;;;0.73;0.20;;;;;;;31.42;26.02;101289.63;4987169;28;20054;-86
2022/07/04 09:47:22;;;;;;;0.98;0.17;;;;;;;31.98;24.91;101289.19;4985923;28;20045;-84
2022/07/04 09:50:20;;;;;;;0.50;0.20;;;;;;;32.18;24.91;101283.84;4971924;28;20117;-89
2022/07/04 09:52:55;;;;;;;0.73;0.20;;;;;;;32.54;23.99;101281.44;4990410;28;20046;-86
2022/07/04 09:55:41;;;;;;;2.17;0.40;;;;;;;32.14;24.12;101271.53;4989843;28;20060;-89
2022/07/04 09:58:14;;;;;;;5.68;0.93;;;;;;;32.22;24.48;101279.84;4996301;28;20061;-89
2022/07/04 10:00:44;;;;;;;2.38;0.20;;;;;;;31.83;24.64;101291.41;4982650;28;20379;-85
2022/07/04 10:03:31;;;;;;;1.33;0.20;;;;;;;32.07;24.29;101279.38;4964446;28;20056;-87
2022/07/04 10:06:16;;;;;;;1.63;0.40;;;;;;;32.36;24.11;101273.16;4979683;28;20053;-87
2022/07/04 10:08:44;;;;;;;1.17;0.35;;;;;;;32.28;24.78;101283.84;4963657;28;20854;-84
2022/07/04 10:11:12;;;;;;;0.57;0.20;;;;;;;32.22;24.88;101277.13;4981370;28;20165;-89
2022/07/04 10:13:39;;;;;;;1.65;0.15;;;;;;;32.80;24.46;101278.16;4980421;28;20068;-85
2022/07/04 10:16:07;;;;;;;1.10;0.32;;;;;;;32.64;24.43;101281.44;4994143;28;20050;-85
2022/07/04 10:18:35;;;;;;;1.75;0.22;;;;;;;32.08;24.83;101269.38;4979660;28;20066;-90
2022/07/04 10:21:02;;;;;;;0.82;0.20;;;;;;;32.84;24.36;101276.88;4993966;28;20046;-86
2022/07/04 10:23:31;;;;;;;1.17;0.10;;;;;;;34.00;22.98;101270.38;4991892;28;20057;-87
2022/07/04 10:26:00;;;;;;;0.55;0.22;;;;;;;34.77;21.71;101268.06;4994070;28;20038;-84
2022/07/04 10:28:27;;;;;;;0.80;0.30;;;;;;;35.42;21.12;101253.22;4964742;28;20045;-87
2022/07/04 10:30:57;;;;;;;1.35;0.35;;;;;;;35.72;20.60;101260.00;4979927;28;20065;-87
2022/07/04 10:33:29;;;;;;;1.55;0.17;;;;;;;36.29;20.14;101263.91;4964934;28;20054;-87
2022/07/04 10:36:01;;;;;;;0.82;0.20;;;;;;;36.65;19.67;101255.44;4992760;28;20847;-87
2022/07/04 10:38:34;;;;;;;0.45;0.10;;;;;;;36.55;19.38;101255.59;4994023;28;20058;-89
2022/07/04 10:41:07;;;;;;;0.35;0.22;;;;;;;35.69;20.34;101251.31;4988014;28;20065;-89
2022/07/04 10:43:37;;;;;;;0.30;0.10;;;;;;;35.84;20.45;101246.06;4979071;28;20046;-89
2022/07/04 10:46:24;;;;;;;1.70;0.50;;;;;;;34.32;20.95;101263.59;4995097;28;20501;-88
2022/07/04 10:49:20;;;;;;;1.27;0.30;;;;;;;34.28;21.73;101263.88;4976792;28;20046;-87
2022/07/04 10:51:56;;;;;;;0.38;0.20;;;;;;;34.94;20.71;101245.44;4970083;28;20058;-86
2022/07/04 10:54:35;;;;;;;2.55;0.50;;;;;;;35.71;20.83;101238.34;4955351;28;20118;-91
2022/07/04 10:57:28;;;;;;;1.98;0.30;;;;;;;36.62;19.22;101249.47;4940930;28;20155;-91
2022/07/04 10:59:56;;;;;;;1.80;0.20;;;;;;;36.31;20.24;101255.53;4960049;28;20807;-87
2022/07/04 11:02:37;;;;;;;1.60;0.30;;;;;;;37.10;19.27;101244.97;4965238;28;20061;-87
2022/07/04 11:05:18;;;;;;;0.70;0.30;;;;;;;37.52;18.23;101242.97;4960416;28;20122;-87
2022/07/04 11:07:44;;;;;;;0.93;0.10;;;;;;;37.31;18.88;101252.63;4976324;28;20047;-89
2022/07/04 11:10:16;;;;;;;0.70;0.50;;;;;;;37.57;18.22;101244.19;4964756;28;20062;-88
2022/07/04 11:12:54;;;;;;;1.50;0.40;;;;;;;37.72;17.82;101243.41;4980511;28;20050;-90
2022/07/04 11:15:33;;;;;;;0.25;0.20;;;;;;;37.40;17.58;101248.84;4986823;28;20082;-92
2022/07/04 11:18:05;;;;;;;0.82;0.30;;;;;;;37.72;18.55;101248.88;4978927;28;20047;-90
2022/07/04 11:20:35;;;;;;;0.52;0.28;;;;;;;37.70;18.03;101242.72;4971497;28;20050;-89
2022/07/04 11:23:19;;;;;;;0.30;0.25;;;;;;;37.68;17.75;101247.50;4982181;28;20057;-92
2022/07/04 11:25:54;;;;;;;0.20;0.20;;;;;;;38.10;17.50;101231.78;4964776;28;20092;-88
2022/07/04 11:28:26;;;;;;;0.90;0.20;;;;;;;38.00;17.27;101234.75;4977230;28;20062;-88
2022/07/04 11:31:01;;;;;;;0.75;0.20;;;;;;;37.91;17.70;101225.72;4996777;28;20053;-87
2022/07/04 11:33:40;;;;;;;0.45;0.10;;;;;;;38.20;17.52;101232.34;4980471;28;20397;-87
2022/07/04 11:36:19;;;;;;;0.75;0.20;;;;;;;38.59;17.09;101225.06;4976875;28;20422;-91
2022/07/04 11:39:03;;;;;;;0.40;0.30;;;;;;;37.22;18.22;101220.88;4984452;28;20042;-90
2022/07/04 11:47:26;;;;;;;0.25;0.10;;;;;;;32.12;23.31;101214.81;5009993;28;20034;-91
2022/07/04 11:50:08;;;;;;;0.75;0.20;;;;;;;34.86;20.66;101217.34;4994454;28;20035;-92
2022/07/04 11:52:40;;;;;;;0.50;0.10;;;;;;;35.13;19.97;101204.59;4996716;28;20074;-91
2022/07/04 11:58:05;;;;;;;0.55;0.30;;;;;;;33.06;22.40;101213.31;4998400;28;20066;-93
2022/07/04 12:00:35;;;;;;;1.50;0.40;;;;;;;34.48;20.94;101214.81;5004795;28;20030;-89
2022/07/04 12:03:08;;;;;;;0.30;0.28;;;;;;;36.15;19.50;101205.44;5017331;28;20034;-89
2022/07/04 12:05:36;;;;;;;2.15;0.20;;;;;;;37.52;18.32;101221.13;4990395;28;20053;-86
2022/07/04 12:08:05;;;;;;;1.08;0.20;;;;;;;37.81;17.36;101216.91;4996978;28;20069;-88
2022/07/04 12:10:37;;;;;;;1.35;0.20;;;;;;;37.05;18.73;101214.63;5001304;28;20051;-86
2022/07/04 12:13:10;;;;;;;0.45;0.30;;;;;;;34.44;20.96;101210.72;4987814;28;20046;-87
2022/07/04 12:15:52;;;;;;;4.38;0.32;;;;;;;31.94;22.99;101213.78;5005317;28;20046;-89
2022/07/04 12:18:32;;;;;;;0.95;0.30;;;;;;;30.25;25.17;101225.63;4985356;28;20145;-87
2022/07/04 12:21:18;;;;;;;0.52;0.20;;;;;;;30.92;24.58;101217.31;4996535;28;20077;-88
2022/07/04 12:24:02;;;;;;;1.75;0.17;;;;;;;31.08;24.33;101215.03;5000158;28;20046;-85
2022/07/04 12:26:32;;;;;;;1.75;0.10;;;;;;;31.96;23.49;101203.66;4978629;28;20054;-89